Time;durP1;ratioP1;P1;durP2;ratioP2;P2;SDS_P1;SDS_P2;PMS_P1;PMS_P2;Temp;Humidity;BMP_temperature;BMP_pressure;BME280_temperature;BME280_humidity;BME280_pressure;Samples;Min_cycle;Max_cycle;Signal;HPM_P1;HPM_P2
2021/04/16 00:00:24;;;;;;;23.17;10.48;;;2.50;99.90;;;;;;5027609;28;20060;-52
2021/04/16 00:02:49;;;;;;;20.85;10.55;;;2.60;99.90;;;;;;5032723;28;20029;-50
2021/04/16 00:05:16;;;;;;;19.55;10.05;;;2.60;99.90;;;;;;5032055;28;20437;-50
2021/04/16 00:07:41;;;;;;;25.45;10.40;;;2.60;99.90;;;;;;5035675;28;20051;-53
2021/04/16 00:10:12;;;;;;;26.83;9.38;;;2.60;99.90;;;;;;5028986;28;20029;-51
2021/04/16 00:12:38;;;;;;;22.60;10.93;;;2.60;99.90;;;;;;5030169;28;20456;-53
2021/04/16 00:15:08;;;;;;;21.52;10.55;;;2.60;99.90;;;;;;5030337;28;20055;-53
2021/04/16 00:17:34;;;;;;;19.20;9.10;;;2.60;99.90;;;;;;5031622;28;20064;-54
2021/04/16 00:19:59;;;;;;;21.50;9.48;;;2.60;99.90;;;;;;5030300;28;20064;-52
2021/04/16 00:22:25;;;;;;;26.45;11.05;;;2.60;99.90;;;;;;5028943;28;20057;-53
2021/04/16 00:24:50;;;;;;;23.40;10.85;;;2.60;99.90;;;;;;5030492;28;20025;-54
2021/04/16 00:27:16;;;;;;;26.27;10.63;;;2.60;99.90;;;;;;5040723;28;20391;-53
2021/04/16 00:29:42;;;;;;;22.63;10.27;;;2.50;99.90;;;;;;5029110;28;20549;-53
2021/04/16 00:32:07;;;;;;;23.95;10.20;;;2.40;99.90;;;;;;5035190;28;20110;-55
2021/04/16 00:34:33;;;;;;;21.33;11.23;;;2.30;99.90;;;;;;5029083;28;20124;-54
2021/04/16 00:36:58;;;;;;;20.85;10.90;;;2.30;99.90;;;;;;5030640;28;20045;-50
2021/04/16 00:39:24;;;;;;;20.40;10.23;;;2.20;99.90;;;;;;5028720;28;20045;-52
2021/04/16 00:41:51;;;;;;;18.70;9.80;;;2.20;99.90;;;;;;5042552;28;20039;-51
2021/04/16 00:44:18;;;;;;;21.27;10.60;;;2.20;99.90;;;;;;5023897;28;20121;-49
2021/04/16 00:46:55;;;;;;;24.50;10.50;;;2.20;99.90;;;;;;5039805;28;20537;-53
2021/04/16 00:49:28;;;;;;;22.65;10.40;;;2.10;99.90;;;;;;5030299;28;20128;-49
2021/04/16 00:52:02;;;;;;;26.25;10.88;;;2.20;99.90;;;;;;5033364;28;20032;-53
2021/04/16 00:54:34;;;;;;;22.05;10.25;;;2.20;99.90;;;;;;5023193;28;20448;-51
2021/04/16 00:57:00;;;;;;;26.33;10.90;;;2.20;99.90;;;;;;5041617;28;20487;-50
2021/04/16 00:59:31;;;;;;;26.33;10.05;;;2.20;99.90;;;;;;5029503;28;20033;-51
2021/04/16 01:01:59;;;;;;;22.35;10.82;;;2.20;99.90;;;;;;5038812;28;20043;-55
2021/04/16 01:04:25;;;;;;;28.42;10.52;;;2.10;99.90;;;;;;5033815;28;20032;-54
2021/04/16 01:06:51;;;;;;;25.98;10.63;;;2.10;99.90;;;;;;5039584;28;20029;-53
2021/04/16 01:09:18;;;;;;;17.23;10.40;;;2.20;99.90;;;;;;5030802;28;20033;-51
2021/04/16 01:11:43;;;;;;;23.25;9.68;;;2.30;99.90;;;;;;5040099;28;20108;-51
2021/04/16 01:14:09;;;;;;;20.20;9.80;;;2.30;99.90;;;;;;5033065;28;20460;-52
2021/04/16 01:16:35;;;;;;;25.60;11.35;;;2.20;99.90;;;;;;5039580;28;20025;-50
2021/04/16 01:19:07;;;;;;;22.48;11.38;;;2.10;99.90;;;;;;5040238;28;20028;-52
2021/04/16 01:22:01;;;;;;;22.65;10.65;;;2.10;99.90;;;;;;5036490;28;20084;-52
2021/04/16 01:24:29;;;;;;;21.63;9.90;;;2.10;99.90;;;;;;5027999;28;20491;-51
2021/04/16 01:26:55;;;;;;;20.23;9.80;;;2.10;99.90;;;;;;5037431;28;20048;-52
2021/04/16 01:29:22;;;;;;;18.65;10.90;;;2.00;99.90;;;;;;5025413;28;20059;-54
2021/04/16 01:31:48;;;;;;;19.45;10.98;;;2.00;99.90;;;;;;5015150;28;20029;-52
2021/04/16 01:34:28;;;;;;;21.42;9.85;;;2.00;99.90;;;;;;5032494;28;20504;-55
2021/04/16 01:36:56;;;;;;;25.67;10.77;;;2.10;99.90;;;;;;5031565;28;20056;-52
2021/04/16 01:39:24;;;;;;;22.27;10.18;;;2.20;99.90;;;;;;5028890;28;20041;-51
2021/04/16 01:41:50;;;;;;;18.17;9.68;;;2.20;99.90;;;;;;5037405;28;20021;-51
2021/04/16 01:44:19;;;;;;;18.52;9.95;;;2.30;99.90;;;;;;5031894;28;21738;-48
2021/04/16 01:46:57;;;;;;;17.30;9.50;;;2.20;99.90;;;;;;5035490;28;20047;-52
2021/04/16 01:49:30;;;;;;;25.10;10.45;;;2.20;99.90;;;;;;5040236;28;20388;-53
2021/04/16 01:51:57;;;;;;;19.60;10.63;;;2.10;99.90;;;;;;5032574;28;20029;-53
2021/04/16 01:54:30;;;;;;;21.58;10.73;;;2.00;99.90;;;;;;5035136;28;20632;-54
2021/04/16 01:56:59;;;;;;;19.03;11.63;;;1.90;99.90;;;;;;5039440;28;20048;-54
2021/04/16 01:59:29;;;;;;;41.22;13.73;;;1.90;99.90;;;;;;5034405;28;20914;-54
2021/04/16 02:01:55;;;;;;;21.92;10.18;;;1.80;99.90;;;;;;5031184;28;20395;-51
2021/04/16 02:04:22;;;;;;;21.63;10.05;;;1.80;99.90;;;;;;5033336;28;20445;-52
2021/04/16 02:06:50;;;;;;;17.80;9.15;;;1.90;99.90;;;;;;5033008;28;20435;-52
2021/04/16 02:09:19;;;;;;;17.67;9.18;;;1.90;99.90;;;;;;5030813;28;20091;-54
2021/04/16 02:11:45;;;;;;;20.15;10.45;;;2.10;99.90;;;;;;5037946;28;20037;-54
2021/04/16 02:14:15;;;;;;;13.05;8.07;;;2.20;99.90;;;;;;5031507;28;20025;-52
2021/04/16 02:16:42;;;;;;;17.88;9.00;;;2.30;99.90;;;;;;5042625;28;20079;-51
2021/04/16 02:19:09;;;;;;;17.50;10.50;;;2.40;99.90;;;;;;5030765;28;20029;-53
2021/04/16 02:21:34;;;;;;;19.90;9.68;;;2.40;99.90;;;;;;5038386;28;20030;-50
2021/04/16 02:24:00;;;;;;;15.80;9.00;;;2.50;99.90;;;;;;5034040;28;20021;-53
2021/04/16 02:26:26;;;;;;;16.55;9.50;;;2.50;99.90;;;;;;5036726;28;20013;-52
2021/04/16 02:28:51;;;;;;;15.13;7.05;;;2.60;99.90;;;;;;5032373;28;20561;-50
2021/04/16 02:31:17;;;;;;;17.38;8.02;;;2.70;99.90;;;;;;5033383;28;20553;-53
2021/04/16 02:33:43;;;;;;;14.73;8.32;;;2.50;99.90;;;;;;5034846;28;20175;-50
2021/04/16 02:36:10;;;;;;;27.55;8.93;;;2.50;99.90;;;;;;5037241;28;20041;-49
2021/04/16 02:38:37;;;;;;;15.20;8.88;;;2.50;99.90;;;;;;5029533;28;20156;-53
2021/04/16 02:41:03;;;;;;;21.20;9.60;;;2.40;99.90;;;;;;5033446;28;20123;-53
2021/04/16 02:43:29;;;;;;;23.02;9.55;;;2.40;99.90;;;;;;5030307;28;20403;-50
2021/04/16 02:45:55;;;;;;;22.58;8.88;;;2.50;99.90;;;;;;5034682;28;20033;-53
2021/04/16 02:48:20;;;;;;;16.33;8.70;;;2.50;99.90;;;;;;5030693;28;20029;-54
2021/04/16 02:50:46;;;;;;;17.10;9.18;;;2.60;99.90;;;;;;5033581;28;20029;-49
2021/04/16 02:53:12;;;;;;;18.55;8.25;;;2.70;99.90;;;;;;5037400;28;20497;-50
2021/04/16 02:55:38;;;;;;;18.17;8.63;;;2.90;99.90;;;;;;5033375;28;20061;-51
2021/04/16 02:58:04;;;;;;;17.67;8.75;;;3.00;99.90;;;;;;5034224;28;20105;-50
2021/04/16 03:00:31;;;;;;;16.60;9.02;;;3.00;99.90;;;;;;5036352;28;20047;-50
2021/04/16 03:02:57;;;;;;;17.48;8.38;;;3.00;99.90;;;;;;5032667;28;20120;-53
2021/04/16 03:05:22;;;;;;;13.77;7.70;;;3.00;99.90;;;;;;5032727;28;20108;-52
2021/04/16 03:07:49;;;;;;;14.07;7.22;;;3.00;99.90;;;;;;5031660;28;20025;-50
2021/04/16 03:10:16;;;;;;;13.80;7.90;;;3.10;99.90;;;;;;5033716;28;20032;-49
2021/04/16 03:12:42;;;;;;;14.05;8.23;;;3.00;99.90;;;;;;5034947;22;574040;-57
2021/04/16 03:15:09;;;;;;;20.80;8.45;;;3.10;99.90;;;;;;5030898;28;20026;-56
2021/04/16 03:17:35;;;;;;;16.17;8.80;;;3.10;99.90;;;;;;5032523;28;20164;-58
2021/04/16 03:20:02;;;;;;;17.83;8.73;;;3.00;99.90;;;;;;5037009;28;20526;-57
2021/04/16 03:22:27;;;;;;;16.38;8.93;;;3.00;99.90;;;;;;5037536;28;20074;-56
2021/04/16 03:24:53;;;;;;;17.13;8.98;;;3.00;99.90;;;;;;5031741;28;20430;-57
2021/04/16 03:27:18;;;;;;;21.45;9.77;;;3.00;99.90;;;;;;5037332;28;20021;-57
2021/04/16 03:29:44;;;;;;;18.98;10.13;;;3.00;99.90;;;;;;5033151;28;20021;-56
2021/04/16 03:32:10;;;;;;;17.80;9.38;;;3.00;99.90;;;;;;5038807;28;20112;-57
2021/04/16 03:34:35;;;;;;;18.05;9.43;;;3.00;99.90;;;;;;5013558;28;20525;-57
2021/04/16 03:37:01;;;;;;;19.25;9.90;;;3.00;99.90;;;;;;5038028;28;20041;-57
2021/04/16 03:39:26;;;;;;;16.73;10.65;;;3.10;99.90;;;;;;5030612;28;20026;-55
2021/04/16 03:41:52;;;;;;;18.27;9.80;;;3.00;99.90;;;;;;5026997;28;20033;-58
2021/04/16 03:44:17;;;;;;;16.25;9.65;;;3.10;99.90;;;;;;5029955;28;20080;-57
2021/04/16 03:46:43;;;;;;;17.83;9.57;;;3.10;99.90;;;;;;5032487;28;20030;-56
2021/04/16 03:49:09;;;;;;;19.35;9.68;;;3.20;99.90;;;;;;5031707;28;20078;-57
2021/04/16 03:51:57;;;;;;;18.73;10.38;;;3.30;99.90;;;;;;5033914;28;20048;-55
2021/04/16 03:54:24;;;;;;;15.90;9.38;;;3.50;99.90;;;;;;5031659;28;20044;-56
2021/04/16 03:56:50;;;;;;;16.80;9.63;;;3.60;99.90;;;;;;5033859;28;20110;-57
2021/04/16 03:59:17;;;;;;;17.38;9.00;;;3.70;99.90;;;;;;5038756;28;20076;-55
2021/04/16 04:01:44;;;;;;;13.32;7.93;;;3.70;99.90;;;;;;5033030;28;20563;-59
2021/04/16 04:04:10;;;;;;;17.60;7.85;;;3.80;99.90;;;;;;5035603;28;20025;-58
2021/04/16 04:06:35;;;;;;;20.92;7.18;;;3.90;99.90;;;;;;5031762;28;20507;-56
2021/04/16 04:09:02;;;;;;;14.10;7.18;;;4.00;99.90;;;;;;5030008;28;20033;-56
2021/04/16 04:11:27;;;;;;;15.23;7.65;;;4.00;99.90;;;;;;5037298;28;20025;-59
2021/04/16 04:13:54;;;;;;;17.55;9.15;;;3.90;99.90;;;;;;5032271;28;20036;-56
2021/04/16 04:16:19;;;;;;;17.98;8.43;;;4.00;99.90;;;;;;5030296;28;20045;-57
2021/04/16 04:18:45;;;;;;;17.58;8.45;;;3.80;99.90;;;;;;5035885;28;20093;-59
2021/04/16 04:21:11;;;;;;;17.60;8.25;;;3.80;99.90;;;;;;5035321;28;20024;-60
2021/04/16 04:23:36;;;;;;;12.68;7.55;;;3.80;99.90;;;;;;5034315;28;20030;-57
2021/04/16 04:26:02;;;;;;;13.07;8.05;;;3.80;99.90;;;;;;5039840;28;20021;-56
2021/04/16 04:28:28;;;;;;;12.60;7.60;;;3.70;99.90;;;;;;5035812;28;20048;-58
2021/04/16 04:30:54;;;;;;;19.17;8.75;;;3.70;99.90;;;;;;5038196;28;20961;-60
2021/04/16 04:33:19;;;;;;;15.77;7.65;;;3.70;99.90;;;;;;5037815;28;20029;-59
2021/04/16 04:35:45;;;;;;;12.93;7.43;;;3.70;99.90;;;;;;5034559;28;20075;-59
2021/04/16 04:38:11;;;;;;;12.75;8.00;;;3.70;99.90;;;;;;5029097;28;20457;-58
2021/04/16 04:40:36;;;;;;;14.25;8.10;;;3.60;99.90;;;;;;5035069;28;20045;-56
2021/04/16 04:43:02;;;;;;;16.63;8.05;;;3.60;99.90;;;;;;5033342;28;20105;-59
2021/04/16 04:45:28;;;;;;;12.52;7.65;;;3.60;99.90;;;;;;5030173;28;20030;-59
2021/04/16 04:47:53;;;;;;;14.25;6.78;;;3.50;99.90;;;;;;5031337;28;20029;-58
2021/04/16 04:50:20;;;;;;;13.40;7.47;;;3.60;99.90;;;;;;5035861;28;20035;-58
2021/04/16 04:52:46;;;;;;;15.55;8.40;;;3.60;99.90;;;;;;5027039;28;20036;-56
2021/04/16 04:55:19;;;;;;;18.75;8.23;;;3.60;99.90;;;;;;5033930;28;20025;-59
2021/04/16 04:57:45;;;;;;;15.23;7.90;;;3.70;99.90;;;;;;5031984;28;20499;-63
2021/04/16 05:00:13;;;;;;;18.67;8.25;;;3.70;99.90;;;;;;5034220;28;20045;-64
2021/04/16 05:02:39;;;;;;;12.75;7.13;;;3.80;99.90;;;;;;5030378;28;20357;-63
2021/04/16 05:05:05;;;;;;;14.52;7.40;;;3.90;99.90;;;;;;5025287;28;20052;-63
2021/04/16 05:07:31;;;;;;;21.67;7.55;;;4.00;99.90;;;;;;5030967;28;20025;-63
2021/04/16 05:09:57;;;;;;;14.30;7.57;;;3.90;99.90;;;;;;5030103;28;20106;-64
2021/04/16 05:12:22;;;;;;;12.77;7.65;;;3.90;99.90;;;;;;5032055;28;20045;-63
2021/04/16 05:14:48;;;;;;;12.45;7.18;;;3.80;99.90;;;;;;5037110;28;20491;-64
2021/04/16 05:17:14;;;;;;;16.33;7.57;;;3.80;99.90;;;;;;5032533;28;20033;-63
2021/04/16 05:19:40;;;;;;;15.55;7.30;;;3.80;99.90;;;;;;5036174;28;20491;-62
2021/04/16 05:22:06;;;;;;;16.05;8.40;;;3.80;99.90;;;;;;5014304;28;20480;-63
2021/04/16 05:24:33;;;;;;;14.98;8.07;;;3.90;99.90;;;;;;5029565;28;20099;-63
2021/04/16 05:27:07;;;;;;;15.70;7.50;;;3.90;99.90;;;;;;5035623;28;20032;-62
2021/04/16 05:29:33;;;;;;;16.97;8.73;;;3.90;99.90;;;;;;5032454;28;20034;-61
2021/04/16 05:31:59;;;;;;;13.23;8.23;;;4.00;99.90;;;;;;5031778;28;20029;-65
2021/04/16 05:34:25;;;;;;;16.55;7.65;;;4.00;99.90;;;;;;5028800;28;20045;-64
2021/04/16 05:36:50;;;;;;;11.07;6.80;;;4.10;99.90;;;;;;5032669;28;20034;-64
2021/04/16 05:39:16;;;;;;;14.65;7.30;;;4.20;99.90;;;;;;5031724;28;20025;-64
2021/04/16 05:41:42;;;;;;;13.82;7.78;;;4.20;99.90;;;;;;5029717;28;20029;-63
2021/04/16 05:44:08;;;;;;;12.75;8.10;;;4.20;99.90;;;;;;5035161;28;20098;-63
2021/04/16 05:46:34;;;;;;;14.00;7.95;;;4.30;99.90;;;;;;5037351;28;20021;-63
2021/04/16 05:49:00;;;;;;;17.25;8.05;;;4.40;99.90;;;;;;5037463;28;20024;-60
2021/04/16 05:51:25;;;;;;;11.63;6.82;;;4.50;99.90;;;;;;5031912;28;20033;-61
2021/04/16 05:53:51;;;;;;;15.02;7.63;;;4.60;99.90;;;;;;5030085;28;20034;-59
2021/04/16 05:56:17;;;;;;;18.17;9.07;;;4.70;99.90;;;;;;5026971;28;20396;-61
2021/04/16 05:58:43;;;;;;;17.27;8.30;;;4.70;99.90;;;;;;5038252;28;20034;-59
2021/04/16 06:01:09;;;;;;;17.52;8.20;;;4.80;99.90;;;;;;5030874;28;20022;-60
2021/04/16 06:03:35;;;;;;;20.42;10.20;;;4.80;99.90;;;;;;5031528;28;20072;-57
2021/04/16 06:06:01;;;;;;;18.67;8.98;;;4.90;99.90;;;;;;5029722;28;20103;-58
2021/04/16 06:08:27;;;;;;;14.25;8.85;;;4.90;99.90;;;;;;5031240;28;20100;-60
2021/04/16 06:10:55;;;;;;;15.73;9.23;;;4.90;99.90;;;;;;5031639;28;20049;-59
2021/04/16 06:13:21;;;;;;;25.42;12.07;;;4.90;99.90;;;;;;5035970;28;20044;-62
2021/04/16 06:15:47;;;;;;;18.65;9.98;;;5.00;99.90;;;;;;5026482;28;20370;-62
2021/04/16 06:18:12;;;;;;;15.77;9.32;;;5.00;99.90;;;;;;5031779;28;20052;-59
2021/04/16 06:20:38;;;;;;;18.35;9.18;;;5.10;99.90;;;;;;5031548;28;20029;-60
2021/04/16 06:23:03;;;;;;;21.70;8.68;;;5.10;99.90;;;;;;5027540;28;20440;-59
2021/04/16 06:25:33;;;;;;;15.60;8.23;;;5.20;99.90;;;;;;4998309;28;20446;-59
2021/04/16 06:27:59;;;;;;;21.80;8.82;;;5.30;99.90;;;;;;5032685;28;20034;-60
2021/04/16 06:30:25;;;;;;;14.80;8.45;;;5.40;99.90;;;;;;5032936;28;20044;-61
2021/04/16 06:33:05;;;;;;;15.95;8.18;;;5.40;99.90;;;;;;5024158;28;20398;-63
2021/04/16 06:35:32;;;;;;;18.83;8.20;;;5.50;99.90;;;;;;5012985;28;20029;-62
2021/04/16 06:37:58;;;;;;;15.75;8.05;;;5.50;99.90;;;;;;5022617;28;20064;-59
2021/04/16 06:40:25;;;;;;;15.25;9.00;;;5.60;99.90;;;;;;5026594;28;20104;-63
2021/04/16 06:42:51;;;;;;;16.80;8.50;;;5.70;99.90;;;;;;5029824;28;20092;-60
2021/04/16 06:45:24;;;;;;;13.32;7.50;;;5.80;99.90;;;;;;5028334;28;20032;-60
2021/04/16 06:47:55;;;;;;;13.52;7.72;;;5.90;99.90;;;;;;5029424;28;20021;-61
2021/04/16 06:50:32;;;;;;;13.32;8.20;;;5.90;99.90;;;;;;5028093;28;20376;-60
2021/04/16 06:53:27;;;;;;;22.15;8.48;;;6.10;99.90;;;;;;5024456;28;20053;-58
2021/04/16 06:55:56;;;;;;;;;;;6.10;99.90;;;;;;5033407;28;20076;-58
2021/04/16 06:58:34;;;;;;;16.80;8.98;;;6.10;99.90;;;;;;5006144;28;19999;-59
2021/04/16 07:01:20;;;;;;;12.52;7.72;;;6.20;99.90;;;;;;5028780;28;20040;-57
2021/04/16 07:04:01;;;;;;;18.70;9.00;;;6.30;99.90;;;;;;5027725;28;20041;-59
2021/04/16 07:06:30;;;;;;;16.00;8.20;;;6.30;99.90;;;;;;5021885;28;20087;-59
2021/04/16 07:09:04;;;;;;;18.55;8.65;;;6.30;99.90;;;;;;5029252;28;20451;-59
2021/04/16 07:11:36;;;;;;;17.73;8.63;;;6.40;99.90;;;;;;5006751;28;20026;-58
2021/04/16 07:14:03;;;;;;;14.23;7.60;;;6.50;99.90;;;;;;5021830;28;20034;-60
2021/04/16 07:16:32;;;;;;;16.15;7.80;;;6.60;99.90;;;;;;5016924;28;20026;-58
2021/04/16 07:19:03;;;;;;;14.25;8.20;;;6.60;99.90;;;;;;5025375;28;20051;-58
2021/04/16 07:21:28;;;;;;;15.57;8.27;;;6.70;99.90;;;;;;5020651;28;20018;-60
2021/04/16 07:23:58;;;;;;;16.13;7.15;;;6.70;99.90;;;;;;5026215;28;20092;-60
2021/04/16 07:26:36;;;;;;;13.85;7.85;;;6.80;99.90;;;;;;5019246;28;20060;-60
2021/04/16 07:29:03;;;;;;;16.92;7.95;;;6.90;99.90;;;;;;5026499;28;20053;-60
2021/04/16 07:31:42;;;;;;;12.02;5.20;;;7.00;99.90;;;;;;5024857;28;20462;-62
2021/04/16 07:34:30;;;;;;;9.45;5.10;;;7.20;99.90;;;;;;5025963;28;20025;-62
2021/04/16 07:37:07;;;;;;;15.18;5.47;;;7.30;99.90;;;;;;5024290;28;20026;-62
2021/04/16 07:39:36;;;;;;;10.02;5.22;;;7.50;99.90;;;;;;5025521;28;20029;-60
2021/04/16 07:42:12;;;;;;;10.10;4.75;;;7.50;99.90;;;;;;5028142;28;20044;-58
2021/04/16 07:44:57;;;;;;;10.25;4.85;;;7.50;99.90;;;;;;5030290;28;20040;-60
2021/04/16 07:47:27;;;;;;;9.27;5.07;;;7.60;99.90;;;;;;5015960;28;20030;-63
2021/04/16 07:50:07;;;;;;;7.70;4.45;;;7.60;99.90;;;;;;5034189;28;20029;-61
2021/04/16 07:52:43;;;;;;;6.85;4.18;;;7.70;99.90;;;;;;5033068;28;20403;-58
2021/04/16 07:55:14;;;;;;;9.35;4.45;;;7.70;99.90;;;;;;5027656;28;20033;-60
2021/04/16 07:58:10;;;;;;;7.10;3.60;;;7.80;99.90;;;;;;5027277;28;20609;-60
2021/04/16 08:00:41;;;;;;;8.25;3.95;;;7.80;99.90;;;;;;5027335;28;20038;-61
2021/04/16 08:03:12;;;;;;;6.95;4.38;;;7.90;99.90;;;;;;5032914;28;20033;-61
2021/04/16 08:05:44;;;;;;;10.02;4.45;;;7.90;99.90;;;;;;5028727;28;20403;-58
2021/04/16 08:08:32;;;;;;;5.22;3.33;;;8.00;99.90;;;;;;5028878;28;20048;-58
2021/04/16 08:11:10;;;;;;;9.00;3.40;;;8.10;99.90;;;;;;5044475;28;20041;-60
2021/04/16 08:13:38;;;;;;;7.55;4.38;;;8.20;99.90;;;;;;5029220;28;20034;-62
2021/04/16 08:16:23;;;;;;;8.10;4.35;;;8.30;99.90;;;;;;5035824;28;20025;-62
2021/04/16 08:19:04;;;;;;;8.20;4.13;;;8.30;99.90;;;;;;5032025;28;20053;-60
2021/04/16 08:21:36;;;;;;;8.68;4.07;;;8.50;99.90;;;;;;5033097;28;20028;-60
2021/04/16 08:24:15;;;;;;;7.50;4.32;;;8.50;99.90;;;;;;5031943;28;20021;-60
2021/04/16 08:26:43;;;;;;;8.50;4.38;;;8.50;99.90;;;;;;5032328;28;20383;-62
2021/04/16 08:29:26;;;;;;;10.13;4.72;;;8.60;99.90;;;;;;5034136;28;20033;-61
2021/04/16 08:32:34;;;;;;;7.85;4.40;;;8.60;99.90;;;;;;5029488;28;20029;-61
2021/04/16 08:35:21;;;;;;;9.98;5.30;;;8.70;99.90;;;;;;5020454;28;20069;-59
2021/04/16 08:38:09;;;;;;;18.05;6.40;;;8.80;99.90;;;;;;5029153;28;20491;-59
2021/04/16 08:40:39;;;;;;;11.85;6.53;;;8.80;99.90;;;;;;5027051;28;20465;-60
2021/04/16 08:43:06;;;;;;;14.95;6.68;;;8.70;99.90;;;;;;5031652;28;20488;-61
2021/04/16 08:45:37;;;;;;;12.55;7.72;;;8.60;99.90;;;;;;5031908;28;20112;-58
2021/04/16 08:48:13;;;;;;;21.63;7.43;;;8.50;99.90;;;;;;5030333;28;20471;-61
2021/04/16 08:50:45;;;;;;;17.35;6.90;;;8.40;99.90;;;;;;5028556;28;20078;-61
2021/04/16 08:53:10;;;;;;;11.45;6.55;;;8.50;99.90;;;;;;5030922;28;20033;-59
2021/04/16 08:55:42;;;;;;;11.82;6.15;;;8.50;99.90;;;;;;5008586;28;20052;-59
2021/04/16 08:58:19;;;;;;;13.32;6.38;;;8.60;99.90;;;;;;5020947;28;20065;-58
2021/04/16 09:00:55;;;;;;;13.25;7.53;;;8.70;99.90;;;;;;5023606;28;20044;-60
2021/04/16 09:03:26;;;;;;;12.48;7.43;;;8.70;99.90;;;;;;5025056;28;20072;-62
2021/04/16 09:06:00;;;;;;;15.45;6.35;;;8.70;99.90;;;;;;5026989;28;20407;-60
2021/04/16 09:08:47;;;;;;;9.73;5.93;;;8.60;99.90;;;;;;5027036;28;20505;-61
2021/04/16 09:13:56;;;;;;;13.70;5.75;;;8.90;99.90;;;;;;5000853;28;20457;-61
2021/04/16 09:16:35;;;;;;;11.25;6.57;;;8.90;99.90;;;;;;4998793;28;20639;-60
2021/04/16 09:19:26;;;;;;;10.02;5.15;;;8.90;99.90;;;;;;5004679;28;20033;-60
2021/04/16 09:22:06;;;;;;;10.23;5.60;;;9.00;99.90;;;;;;5003363;28;20493;-62
2021/04/16 09:24:52;;;;;;;11.07;6.22;;;9.10;99.90;;;;;;5010037;28;20392;-61
2021/04/16 09:27:34;;;;;;;8.38;5.28;;;9.20;99.90;;;;;;5002879;28;20571;-63
2021/04/16 09:30:00;;;;;;;11.00;5.45;;;9.30;99.90;;;;;;5007685;28;20556;-61
2021/04/16 09:32:32;;;;;;;10.07;5.50;;;9.50;99.90;;;;;;5002559;28;20396;-61
2021/04/16 09:34:58;;;;;;;9.25;5.05;;;9.70;99.90;;;;;;5004637;28;20043;-62
2021/04/16 09:37:34;;;;;;;11.73;6.57;;;9.70;99.90;;;;;;5005446;28;20088;-62
2021/04/16 09:40:09;;;;;;;13.68;4.80;;;9.80;99.90;;;;;;5004003;28;20128;-61
2021/04/16 09:42:44;;;;;;;10.05;5.20;;;9.80;99.90;;;;;;5007880;28;20439;-62
2021/04/16 09:45:27;;;;;;;11.35;5.40;;;9.80;99.90;;;;;;5010466;28;20022;-62
2021/04/16 09:47:55;;;;;;;11.15;4.82;;;9.80;99.90;;;;;;5006552;28;20033;-59
2021/04/16 09:50:36;;;;;;;7.22;4.75;;;9.80;99.90;;;;;;5006072;28;20413;-60
2021/04/16 09:53:32;;;;;;;14.45;5.85;;;10.00;99.90;;;;;;5005414;28;20027;-60
2021/04/16 09:55:58;;;;;;;13.57;5.35;;;10.10;99.90;;;;;;5004287;28;20395;-62
2021/04/16 09:58:34;;;;;;;8.18;5.32;;;10.20;99.90;;;;;;5010724;28;20025;-63
2021/04/16 10:01:12;;;;;;;8.23;4.50;;;10.40;99.90;;;;;;5004038;28;20046;-62
2021/04/16 10:03:43;;;;;;;10.38;5.07;;;10.60;99.90;;;;;;5000609;28;20481;-61
2021/04/16 10:06:32;;;;;;;10.82;4.60;;;10.70;99.90;;;;;;5002958;28;20051;-60
2021/04/16 10:09:16;;;;;;;8.50;4.50;;;10.60;99.90;;;;;;4998131;28;20433;-60
2021/04/16 10:11:59;;;;;;;10.03;4.00;;;10.40;99.90;;;;;;5005121;28;20026;-62
2021/04/16 10:14:24;;;;;;;9.60;4.88;;;10.50;99.90;;;;;;5008550;28;20037;-61
2021/04/16 10:17:09;;;;;;;11.00;4.63;;;10.60;99.90;;;;;;5004463;28;20022;-62
2021/04/16 10:19:38;;;;;;;5.10;3.40;;;10.80;99.90;;;;;;5009026;28;20033;-61
2021/04/16 10:22:30;;;;;;;8.13;3.08;;;10.90;99.90;;;;;;5005062;28;20132;-61
2021/04/16 10:26:16;;;;;;;9.13;3.40;;;10.90;99.90;;;;;;5008035;28;20104;-61
2021/04/16 10:31:00;;;;;;;11.48;4.28;;;11.10;99.90;;;;;;5005391;28;20033;-61
2021/04/16 10:34:15;;;;;;;8.73;4.03;;;11.10;99.90;;;;;;5009239;28;20064;-61
2021/04/16 10:48:50;;;;;;;5.78;3.67;;;11.10;99.90;;;;;;5001895;28;20026;-60
2021/04/16 11:45:10;;;;;;;;;;;11.80;99.90;;;;;;5005334;28;20026;-59
2021/04/16 12:39:27;;;;;;;5.17;2.23;;;12.30;99.90;;;;;;5007924;28;20056;-62
2021/04/16 12:41:57;;;;;;;3.83;2.15;;;12.70;98.60;;;;;;5008171;28;20026;-60
2021/04/16 12:44:44;;;;;;;6.60;2.40;;;13.30;98.60;;;;;;5002644;28;20100;-60
2021/04/16 12:47:17;;;;;;;6.18;2.22;;;13.50;97.60;;;;;;5003771;28;20022;-60
2021/04/16 12:49:43;;;;;;;10.32;2.58;;;13.60;98.20;;;;;;5007427;28;20026;-60
2021/04/16 12:52:08;;;;;;;6.03;2.40;;;14.10;98.00;;;;;;4999887;28;20038;-61
2021/04/16 12:54:39;;;;;;;6.57;3.03;;;14.50;95.70;;;;;;5006480;28;20463;-60
2021/04/16 12:57:16;;;;;;;6.63;2.30;;;14.40;96.90;;;;;;5005932;28;20129;-62
2021/04/16 12:59:41;;;;;;;6.13;2.72;;;14.30;96.50;;;;;;5004512;28;20030;-59
2021/04/16 13:02:16;;;;;;;7.25;2.38;;;14.20;95.60;;;;;;4998819;28;20392;-61
2021/04/16 13:04:42;;;;;;;3.58;2.67;;;14.00;95.10;;;;;;4989013;28;20022;-58
2021/04/16 13:07:08;;;;;;;5.75;2.15;;;13.60;95.70;;;;;;5005756;28;20057;-60
2021/04/16 13:09:34;;;;;;;4.97;2.50;;;13.60;96.20;;;;;;5006391;28;20060;-56
2021/04/16 13:11:59;;;;;;;4.43;2.05;;;13.60;96.30;;;;;;5009033;28;20037;-58
2021/04/16 13:14:25;;;;;;;4.75;2.20;;;13.40;95.60;;;;;;5007108;28;20026;-60
2021/04/16 13:16:50;;;;;;;4.38;2.75;;;13.40;94.60;;;;;;5006178;28;20033;-60
2021/04/16 13:19:31;;;;;;;2.95;2.10;;;13.20;96.90;;;;;;5002772;28;20034;-59
2021/04/16 13:22:10;;;;;;;2.70;2.05;;;13.30;94.90;;;;;;5007282;28;20041;-59
2021/04/16 13:24:37;;;;;;;5.13;1.67;;;13.40;96.10;;;;;;5005907;28;20026;-62
2021/04/16 13:27:05;;;;;;;4.38;2.15;;;13.50;94.60;;;;;;5008701;28;20510;-59
2021/04/16 13:29:31;;;;;;;3.92;1.98;;;13.60;94.70;;;;;;5007485;28;20092;-60
2021/04/16 13:31:57;;;;;;;2.60;1.90;;;13.70;93.90;;;;;;5006483;28;20038;-60
2021/04/16 13:34:24;;;;;;;3.20;1.73;;;13.70;94.30;;;;;;5006985;28;20041;-60
2021/04/16 13:36:51;;;;;;;3.83;1.58;;;13.70;93.40;;;;;;5006135;28;20034;-60
2021/04/16 13:39:17;;;;;;;4.45;2.08;;;13.60;96.70;;;;;;5003293;28;20026;-59
2021/04/16 13:41:43;;;;;;;2.40;1.30;;;13.50;94.60;;;;;;5006564;28;20104;-58
2021/04/16 13:44:09;;;;;;;4.57;1.33;;;13.50;93.80;;;;;;5008087;28;20440;-59
2021/04/16 13:46:36;;;;;;;3.30;1.45;;;13.60;93.40;;;;;;5005780;28;20030;-59
2021/04/16 13:49:05;;;;;;;2.35;1.60;;;13.70;92.40;;;;;;4990008;28;20040;-58
2021/04/16 13:51:34;;;;;;;2.75;1.50;;;13.70;92.80;;;;;;5004208;28;20509;-59
2021/04/16 13:53:59;;;;;;;7.15;1.52;;;13.90;92.20;;;;;;5007215;28;20041;-59
2021/04/16 13:56:25;;;;;;;4.68;1.63;;;13.90;91.00;;;;;;5005703;28;20029;-58
2021/04/16 13:58:51;;;;;;;5.75;1.45;;;13.80;90.60;;;;;;5003523;28;20026;-56
2021/04/16 14:01:16;;;;;;;2.70;1.58;;;13.70;91.10;;;;;;5004674;28;20070;-58
2021/04/16 14:03:45;;;;;;;2.47;1.52;;;13.80;92.00;;;;;;5007241;28;20018;-58
2021/04/16 14:06:23;;;;;;;5.90;1.60;;;14.20;92.60;;;;;;5004528;28;20037;-59
2021/04/16 14:08:56;;;;;;;4.22;1.75;;;14.50;92.00;;;;;;5007652;28;20029;-59
2021/04/16 14:11:23;;;;;;;7.28;1.98;;;15.00;91.30;;;;;;5008149;28;20026;-59
2021/04/16 14:13:49;;;;;;;8.57;2.20;;;14.90;90.20;;;;;;5009838;28;20029;-58
2021/04/16 14:16:28;;;;;;;3.97;2.25;;;14.90;90.80;;;;;;5009178;28;20517;-56
2021/04/16 14:18:55;;;;;;;6.32;1.98;;;14.90;90.30;;;;;;5007366;28;20443;-59
2021/04/16 14:21:21;;;;;;;3.67;1.92;;;14.70;91.30;;;;;;5007232;28;20022;-58
2021/04/16 14:23:48;;;;;;;6.68;2.35;;;14.80;90.50;;;;;;5011640;28;20064;-56
2021/04/16 14:26:15;;;;;;;7.07;2.00;;;14.50;91.40;;;;;;5006528;28;20145;-59
2021/04/16 14:28:42;;;;;;;4.80;1.85;;;14.60;91.20;;;;;;5007592;28;20084;-59
2021/04/16 14:31:08;;;;;;;5.75;1.60;;;14.60;90.50;;;;;;5001275;28;20033;-59
2021/04/16 14:33:37;;;;;;;5.85;2.10;;;14.40;90.10;;;;;;5002211;28;20030;-58
2021/04/16 14:36:03;;;;;;;3.35;1.45;;;14.20;89.60;;;;;;5001978;28;20037;-59
2021/04/16 14:38:29;;;;;;;3.67;1.70;;;14.00;89.00;;;;;;5003980;28;20128;-58
2021/04/16 14:40:55;;;;;;;5.45;1.77;;;13.80;89.10;;;;;;5008264;28;20046;-59
2021/04/16 14:43:23;;;;;;;4.18;1.90;;;13.60;90.20;;;;;;5007212;28;20033;-59
2021/04/16 14:45:52;;;;;;;4.88;1.50;;;13.60;91.00;;;;;;5007090;28;20121;-59
2021/04/16 14:48:19;;;;;;;2.83;1.60;;;13.70;90.30;;;;;;4992272;28;20026;-59
2021/04/16 14:50:44;;;;;;;3.33;1.67;;;13.60;88.50;;;;;;5004733;28;20092;-59
2021/04/16 14:53:44;;;;;;;3.00;1.73;;;13.50;88.00;;;;;;5011150;28;20715;-58
2021/04/16 14:56:12;;;;;;;3.03;2.05;;;13.40;91.70;;;;;;5002881;28;20053;-58
2021/04/16 14:58:48;;;;;;;3.15;1.60;;;13.40;87.90;;;;;;5011909;28;20101;-59
2021/04/16 15:01:15;;;;;;;7.57;2.15;;;13.50;88.10;;;;;;4989019;28;20514;-59
2021/04/16 15:03:41;;;;;;;3.88;2.00;;;13.60;89.10;;;;;;5009354;28;20037;-59